Terminal Aerodrome Forecast
Issued by NWS

Home | Current Version | Previous Version | Text Only | Print | Product List | Glossary On
Versions: 1 2 3 4 5 6 7 8 9 10 11 12 13 14 15 16 17 18 19 20 21
000
FTUS42 KKEY 192332
TAFMTH
TAF
KMTH 192332Z 2000/2024 11011G20KT P6SM FEW025 SCT070
     FM200300 10012G23KT P6SM VCSH SCT020 OVC050
      TEMPO 2004/2007 5SM -SHRA BKN020 OVC040
     FM201500 12012G20KT P6SM FEW025 SCT045=

USA.gov is the U.S. government's official web portal to all federal, state and local government web resources and services.